createdAt,value
2018-05-29T00:01:26.658Z,100781.79
2018-05-29T00:03:30.729Z,100767.39
2018-05-29T00:05:34.102Z,100777.84
2018-05-29T00:07:37.450Z,100782.62
2018-05-29T00:09:41.534Z,100780.87
2018-05-29T00:11:44.837Z,100777.83
2018-05-29T00:13:48.179Z,100784.78
2018-05-29T00:15:51.501Z,100775.20
2018-05-29T00:17:54.792Z,100783.00
2018-05-29T00:19:58.127Z,100776.90
2018-05-29T00:22:02.207Z,100781.30
2018-05-29T00:24:05.611Z,100763.41
2018-05-29T00:26:08.956Z,100780.42
2018-05-29T00:28:12.278Z,100768.64
2018-05-29T00:30:15.622Z,100769.55
2018-05-29T00:32:18.950Z,100777.39
2018-05-29T00:34:22.614Z,100760.84
2018-05-29T00:36:25.947Z,100772.12
2018-05-29T00:38:29.250Z,100766.89
2018-05-29T00:40:32.569Z,100762.97
2018-05-29T00:42:35.915Z,100761.66
2018-05-29T00:44:39.290Z,100763.40
2018-05-29T00:46:42.594Z,100762.09
2018-05-29T00:48:46.835Z,100758.16
2018-05-29T00:50:50.181Z,100762.96
2018-05-29T00:52:53.523Z,100751.66
2018-05-29T00:55:14.319Z,100755.13
2018-05-29T00:57:17.699Z,100758.98
2018-05-29T00:59:21.007Z,100752.50
2018-05-29T01:01:24.302Z,100755.12
2018-05-29T01:03:27.660Z,100743.76
2018-05-29T01:05:30.981Z,100744.63
2018-05-29T01:07:34.330Z,100749.41
2018-05-29T01:09:37.739Z,100747.72
2018-05-29T01:11:41.070Z,100751.58
2018-05-29T01:13:44.389Z,100756.36
2018-05-29T01:15:48.485Z,100749.82
2018-05-29T01:17:52.709Z,100749.80
2018-05-29T01:19:56.815Z,100750.66
2018-05-29T01:22:00.970Z,100734.09
2018-05-29T01:24:04.336Z,100742.39
2018-05-29T01:26:07.648Z,100741.48
2018-05-29T01:28:11.074Z,100749.30
2018-05-29T01:30:14.609Z,100734.53
2018-05-29T01:32:17.990Z,100743.26
2018-05-29T01:34:21.352Z,100739.73
2018-05-29T01:36:24.684Z,100738.41
2018-05-29T01:38:28.060Z,100734.92
2018-05-29T01:40:32.158Z,100735.31
2018-05-29T01:42:35.552Z,100734.02
2018-05-29T01:44:38.904Z,100737.53
2018-05-29T01:46:42.269Z,100737.48
2018-05-29T01:48:45.601Z,100732.69
2018-05-29T01:50:48.945Z,100733.94
2018-05-29T01:52:52.385Z,100722.63
2018-05-29T01:54:55.729Z,100724.80
2018-05-29T01:56:59.795Z,100721.33
2018-05-29T01:59:03.176Z,100718.28
2018-05-29T02:01:06.615Z,100722.17
2018-05-29T02:03:10.727Z,100715.23
2018-05-29T02:05:14.885Z,100715.23
2018-05-29T02:07:18.246Z,100714.02
2018-05-29T02:09:21.639Z,100717.44
2018-05-29T02:11:25.032Z,100710.89
2018-05-29T02:13:28.392Z,100707.39
2018-05-29T02:15:31.758Z,100706.53
2018-05-29T02:17:35.144Z,100703.94
2018-05-29T02:19:38.487Z,100699.19
2018-05-29T02:21:42.627Z,100706.09
2018-05-29T02:23:46.040Z,100710.41
2018-05-29T02:25:49.439Z,100703.00
2018-05-29T02:27:52.746Z,100692.14
2018-05-29T02:29:56.157Z,100703.91
2018-05-29T02:31:59.494Z,100699.53
2018-05-29T02:34:02.896Z,100703.45
2018-05-29T02:36:06.314Z,100711.23
2018-05-29T02:38:09.640Z,100705.58
2018-05-29T02:40:12.989Z,100698.57
2018-05-29T02:42:16.429Z,100705.97
2018-05-29T02:44:19.792Z,100703.78
2018-05-29T02:46:23.153Z,100700.71
2018-05-29T02:48:26.600Z,100705.47
2018-05-29T02:50:30.028Z,100699.86
2018-05-29T02:52:33.354Z,100691.14
2018-05-29T02:54:36.718Z,100692.03
2018-05-29T02:56:40.103Z,100690.30
2018-05-29T02:58:43.453Z,100693.37
2018-05-29T03:00:46.829Z,100683.74
2018-05-29T03:02:50.202Z,100688.13
2018-05-29T03:04:53.522Z,100687.69
2018-05-29T03:06:56.922Z,100679.86
2018-05-29T03:09:00.300Z,100680.28
2018-05-29T03:11:03.622Z,100674.19
2018-05-29T03:13:06.976Z,100685.47
2018-05-29T03:15:10.354Z,100677.59
2018-05-29T03:17:13.729Z,100682.36
2018-05-29T03:19:17.151Z,100685.83
2018-05-29T03:21:20.565Z,100674.05
2018-05-29T03:23:23.904Z,100688.86
2018-05-29T03:25:27.250Z,100683.17
2018-05-29T03:27:30.675Z,100685.45
2018-05-29T03:29:34.081Z,100681.05
2018-05-29T03:31:37.437Z,100679.72
2018-05-29T03:33:40.779Z,100678.83
2018-05-29T03:35:44.085Z,100679.70
2018-05-29T03:37:47.492Z,100677.47
2018-05-29T03:39:50.830Z,100683.52
2018-05-29T03:41:54.183Z,100674.80
2018-05-29T03:43:57.534Z,100677.02
2018-05-29T03:46:00.869Z,100677.97
2018-05-29T03:48:04.247Z,100676.64
2018-05-29T03:50:07.652Z,100671.36
2018-05-29T03:52:11.010Z,100676.12
2018-05-29T03:54:14.428Z,100674.47
2018-05-29T03:56:17.778Z,100673.52
2018-05-29T03:58:21.125Z,100669.16
2018-05-29T04:00:24.522Z,100678.73
2018-05-29T04:02:27.930Z,100671.73
2018-05-29T04:04:31.324Z,100679.16
2018-05-29T04:06:34.685Z,100683.95
2018-05-29T04:08:38.091Z,100678.72
2018-05-29T04:10:41.491Z,100683.08
2018-05-29T04:12:44.847Z,100689.61
2018-05-29T04:14:48.239Z,100682.64
2018-05-29T04:16:51.619Z,100683.91
2018-05-29T04:18:55.008Z,100691.73
2018-05-29T04:20:58.457Z,100691.30
2018-05-29T04:23:01.957Z,100697.84
2018-05-29T04:25:05.333Z,100701.81
2018-05-29T04:27:08.729Z,100699.69
2018-05-29T04:29:12.141Z,100692.33
2018-05-29T04:31:15.559Z,100694.95
2018-05-29T04:33:19.715Z,100694.53
2018-05-29T04:35:23.083Z,100698.96
2018-05-29T04:37:26.410Z,100696.80
2018-05-29T04:39:29.789Z,100692.05
2018-05-29T04:41:33.202Z,100701.66
2018-05-29T04:43:36.574Z,100706.02
2018-05-29T04:45:39.951Z,100705.59
2018-05-29T04:47:43.356Z,100709.09
2018-05-29T04:49:46.714Z,100714.34
2018-05-29T04:51:50.126Z,100710.01
2018-05-29T04:53:53.489Z,100710.45
2018-05-29T04:55:56.891Z,100712.21
2018-05-29T04:58:00.501Z,100712.66
2018-05-29T05:00:03.925Z,100713.52
2018-05-29T05:02:08.677Z,100705.70
2018-05-29T05:04:12.239Z,100709.67
2018-05-29T05:06:19.325Z,100711.89
2018-05-29T05:08:22.893Z,100704.07
2018-05-29T05:10:26.394Z,100706.27
2018-05-29T05:12:30.523Z,100697.15
2018-05-29T05:14:35.554Z,100699.31
2018-05-29T05:16:40.000Z,100701.50
2018-05-29T05:18:44.335Z,100700.63
2018-05-29T05:20:49.424Z,100693.67
2018-05-29T05:22:52.965Z,100699.77
2018-05-29T05:24:57.332Z,100700.21
2018-05-29T05:27:01.438Z,100700.64
2018-05-29T05:29:05.383Z,100687.17
2018-05-29T05:31:11.499Z,100701.11
2018-05-29T05:33:15.446Z,100707.65
2018-05-29T05:35:22.625Z,100709.83
2018-05-29T05:37:27.975Z,100698.53
2018-05-29T05:39:31.950Z,100698.53
2018-05-29T05:41:36.575Z,100697.23
2018-05-29T05:43:42.050Z,100690.76
2018-05-29T05:45:46.730Z,100688.58
2018-05-29T05:47:50.205Z,100686.42
2018-05-29T05:49:55.068Z,100700.38
2018-05-29T05:51:59.721Z,100699.94
2018-05-29T05:54:05.392Z,100696.89
2018-05-29T05:56:09.802Z,100696.89
2018-05-29T05:58:14.152Z,100694.28
2018-05-29T06:00:17.562Z,100692.55
2018-05-29T06:02:22.538Z,100698.20
2018-05-29T06:04:27.473Z,100699.50
2018-05-29T06:06:32.030Z,100702.11
2018-05-29T06:08:35.432Z,100704.72
2018-05-29T06:10:40.279Z,100698.65
2018-05-29T06:12:44.578Z,100699.08
2018-05-29T06:14:48.028Z,100697.75
2018-05-29T06:16:51.690Z,100697.31
2018-05-29T06:18:55.753Z,100691.22
2018-05-29T06:21:00.775Z,100697.75
2018-05-29T06:23:04.182Z,100699.05
2018-05-29T06:25:07.570Z,100702.50
2018-05-29T06:27:11.075Z,100695.09
2018-05-29T06:29:15.085Z,100690.28
2018-05-29T06:31:18.474Z,100699.00
2018-05-29T06:33:22.726Z,100694.63
2018-05-29T06:35:27.234Z,100694.08
2018-05-29T06:37:30.596Z,100691.52
2018-05-29T06:39:34.007Z,100689.74
2018-05-29T06:41:38.351Z,100706.62
2018-05-29T06:43:42.830Z,100709.69
2018-05-29T06:45:49.821Z,100712.75
2018-05-29T06:47:53.241Z,100706.66
2018-05-29T06:49:56.907Z,100698.37
2018-05-29T06:52:01.253Z,100702.28
2018-05-29T06:54:04.693Z,100693.05
2018-05-29T06:56:08.515Z,100701.64
2018-05-29T06:58:12.678Z,100695.13
2018-05-29T07:00:18.403Z,100695.44
2018-05-29T07:02:24.630Z,100693.70
2018-05-29T07:04:29.945Z,100684.80
2018-05-29T07:06:35.999Z,100689.63
2018-05-29T07:08:42.044Z,100693.84
2018-05-29T07:10:45.783Z,100688.08
2018-05-29T07:12:52.323Z,100683.69
2018-05-29T07:14:56.684Z,100685.94
2018-05-29T07:17:02.065Z,100682.73
2018-05-29T07:19:06.313Z,100681.31
2018-05-29T07:21:10.902Z,100682.92
2018-05-29T07:23:16.780Z,100672.73
2018-05-29T07:25:21.572Z,100671.17
2018-05-29T07:27:26.424Z,100683.73
2018-05-29T07:29:30.562Z,100677.87
2018-05-29T07:31:37.314Z,100673.98
2018-05-29T07:33:44.242Z,100674.35
2018-05-29T07:35:53.414Z,100683.77
2018-05-29T07:37:57.745Z,100668.92
2018-05-29T07:40:02.453Z,100667.09
2018-05-29T07:42:08.982Z,100675.17
2018-05-29T07:44:15.206Z,100671.56
2018-05-29T07:46:23.593Z,100665.11
2018-05-29T07:48:32.047Z,100667.10
2018-05-29T07:50:39.870Z,100668.80
2018-05-29T07:52:46.310Z,100671.03
2018-05-29T07:54:50.881Z,100666.64
2018-05-29T07:56:56.674Z,100664.61
2018-05-29T07:59:01.289Z,100662.53
2018-05-29T08:01:06.332Z,100661.45
2018-05-29T08:03:10.409Z,100654.48
2018-05-29T08:05:15.419Z,100653.44
2018-05-29T08:07:19.417Z,100664.73
2018-05-29T08:09:24.073Z,100653.94
2018-05-29T08:11:27.515Z,100646.63
2018-05-29T08:13:32.395Z,100649.25
2018-05-29T08:15:38.062Z,100632.30
2018-05-29T08:17:42.095Z,100644.08
2018-05-29T08:19:45.565Z,100648.27
2018-05-29T08:21:49.875Z,100643.10
2018-05-29T08:23:54.260Z,100646.41
2018-05-29T08:26:02.260Z,100639.96
2018-05-29T08:28:07.011Z,100647.05
2018-05-29T08:30:12.202Z,100655.69
2018-05-29T08:32:15.831Z,100647.41
2018-05-29T08:34:19.510Z,100636.52
2018-05-29T08:36:22.945Z,100645.55
2018-05-29T08:38:27.316Z,100637.64
2018-05-29T08:40:30.751Z,100641.00
2018-05-29T08:42:35.175Z,100641.14
2018-05-29T08:44:38.698Z,100627.90
2018-05-29T08:46:42.107Z,100629.51
2018-05-29T08:48:45.650Z,100628.61
2018-05-29T08:50:50.541Z,100625.59
2018-05-29T08:52:54.438Z,100624.08
2018-05-29T08:54:58.917Z,100620.25
2018-05-29T08:57:03.208Z,100618.22
2018-05-29T08:59:06.976Z,100621.20
2018-05-29T09:01:16.050Z,100622.98
2018-05-29T09:03:22.140Z,100619.17
2018-05-29T09:05:27.411Z,100622.41
2018-05-29T09:07:30.976Z,100618.12
2018-05-29T09:09:35.513Z,100616.84
2018-05-29T09:11:39.821Z,100616.63
2018-05-29T09:13:43.311Z,100612.70
2018-05-29T09:15:47.022Z,100606.85
2018-05-29T09:17:50.752Z,100612.73
2018-05-29T09:19:56.381Z,100600.27
2018-05-29T09:21:59.807Z,100601.92
2018-05-29T09:24:03.289Z,100612.91
2018-05-29T09:26:12.460Z,100605.60
2018-05-29T09:28:16.364Z,100609.66
2018-05-29T09:30:22.507Z,100604.63
2018-05-29T09:32:26.107Z,100598.73
2018-05-29T09:34:30.553Z,100598.50
2018-05-29T09:36:35.898Z,100606.70
2018-05-29T09:38:40.494Z,100603.19
2018-05-29T09:40:44.162Z,100596.73
2018-05-29T09:42:47.798Z,100596.33
2018-05-29T09:44:51.884Z,100597.85
2018-05-29T09:46:55.308Z,100597.03
2018-05-29T09:49:07.610Z,100594.75
2018-05-29T09:51:12.182Z,100600.70
2018-05-29T09:53:15.716Z,100601.09
2018-05-29T09:55:20.360Z,100598.89
2018-05-29T09:57:24.744Z,100591.62
2018-05-29T09:59:28.253Z,100590.14
2018-05-29T10:01:35.320Z,100589.70
2018-05-29T10:03:39.113Z,100581.38
2018-05-29T10:05:44.857Z,100581.50
2018-05-29T10:07:48.413Z,100580.52
2018-05-29T10:09:52.634Z,100571.30
2018-05-29T10:11:56.209Z,100563.16
2018-05-29T10:14:00.454Z,100564.88
2018-05-29T10:16:03.812Z,100563.79
2018-05-29T10:18:07.509Z,100567.70
2018-05-29T10:20:11.944Z,100558.56
2018-05-29T10:22:16.534Z,100561.50
2018-05-29T10:24:20.860Z,100557.59
2018-05-29T10:26:25.338Z,100558.30
2018-05-29T10:28:30.030Z,100567.09
2018-05-29T10:30:34.617Z,100562.86
2018-05-29T10:32:38.918Z,100554.94
2018-05-29T10:34:43.423Z,100562.47
2018-05-29T10:36:47.511Z,100560.07
2018-05-29T10:38:50.991Z,100567.27
2018-05-29T10:40:55.693Z,100562.71
2018-05-29T10:42:59.194Z,100555.45
2018-05-29T10:45:03.162Z,100561.08
2018-05-29T10:47:07.226Z,100560.47
2018-05-29T10:49:11.369Z,100565.52
2018-05-29T10:51:15.398Z,100566.44
2018-05-29T10:53:19.010Z,100561.75
2018-05-29T10:55:22.394Z,100553.23
2018-05-29T10:57:28.190Z,100553.17
2018-05-29T10:59:33.040Z,100554.50
2018-05-29T11:01:36.722Z,100552.50
2018-05-29T11:03:42.249Z,100542.13
2018-05-29T11:05:45.665Z,100549.75
2018-05-29T11:07:51.983Z,100523.91
2018-05-29T11:09:56.970Z,100529.26
2018-05-29T11:12:00.618Z,100531.60
2018-05-29T11:14:04.485Z,100536.73
2018-05-29T11:16:08.487Z,100529.98
2018-05-29T11:18:12.859Z,100532.26
2018-05-29T11:20:17.671Z,100528.42
2018-05-29T11:22:23.213Z,100536.73
2018-05-29T11:24:28.489Z,100529.48
2018-05-29T11:26:33.744Z,100524.27
2018-05-29T11:28:39.737Z,100526.69
2018-05-29T11:30:43.922Z,100523.81
2018-05-29T11:32:48.142Z,100525.67
2018-05-29T11:34:55.194Z,100528.45
2018-05-29T11:36:59.520Z,100518.16
2018-05-29T11:39:03.762Z,100524.09
2018-05-29T11:41:07.275Z,100515.23
2018-05-29T11:43:11.648Z,100499.70
2018-05-29T11:45:16.413Z,100504.66
2018-05-29T11:47:20.321Z,100496.03
2018-05-29T11:49:25.022Z,100499.04
2018-05-29T11:51:28.516Z,100481.31
2018-05-29T11:53:33.405Z,100498.48
2018-05-29T11:55:39.924Z,100491.39
2018-05-29T11:57:44.538Z,100491.95
2018-05-29T11:59:52.644Z,100486.30
2018-05-29T12:01:56.100Z,100484.42
2018-05-29T12:04:01.219Z,100460.61
2018-05-29T12:06:06.198Z,100465.00
2018-05-29T12:08:10.420Z,100461.12
2018-05-29T12:10:13.861Z,100457.64
2018-05-29T12:12:27.649Z,100451.14
2018-05-29T12:14:31.958Z,100444.45
2018-05-29T12:16:36.398Z,100445.20
2018-05-29T12:18:40.110Z,100447.97
2018-05-29T12:20:43.514Z,100440.70
2018-05-29T12:22:50.996Z,100436.02
2018-05-29T12:24:56.317Z,100435.14
2018-05-29T12:27:00.164Z,100439.07
2018-05-29T12:29:03.664Z,100441.80
2018-05-29T12:31:07.109Z,100443.84
2018-05-29T12:33:10.722Z,100442.38
2018-05-29T12:35:14.458Z,100437.58
2018-05-29T12:37:19.423Z,100444.29
2018-05-29T12:39:25.324Z,100445.19
2018-05-29T12:41:28.790Z,100467.25
2018-05-29T12:43:33.573Z,100467.39
2018-05-29T12:45:37.043Z,100464.81
2018-05-29T12:47:41.386Z,100464.46
2018-05-29T12:49:44.870Z,100455.08
2018-05-29T12:51:49.126Z,100458.70
2018-05-29T12:53:54.798Z,100448.72
2018-05-29T12:56:02.318Z,100457.09
2018-05-29T12:58:08.847Z,100455.34
2018-05-29T13:00:14.763Z,100443.77
2018-05-29T13:02:21.990Z,100446.66
2018-05-29T13:04:26.203Z,100454.68
2018-05-29T13:06:31.244Z,100444.59
2018-05-29T13:08:35.148Z,100446.72
2018-05-29T13:10:39.043Z,100448.88
2018-05-29T13:12:43.808Z,100448.91
2018-05-29T13:14:50.136Z,100442.08
2018-05-29T13:16:59.566Z,100443.80
2018-05-29T13:19:03.093Z,100439.78
2018-05-29T13:21:13.611Z,100342.70
2018-05-29T13:23:19.088Z,100377.59
2018-05-29T13:25:26.451Z,100382.03
2018-05-29T13:27:33.304Z,100387.31
2018-05-29T13:29:44.982Z,100383.74
2018-05-29T13:31:49.908Z,100365.20
2018-05-29T13:33:55.045Z,100387.45
2018-05-29T13:36:00.432Z,100405.16
2018-05-29T13:38:09.445Z,100405.69
2018-05-29T13:40:16.127Z,100317.29
2018-05-29T13:42:29.352Z,100407.42
2018-05-29T13:44:32.904Z,100409.00
2018-05-29T13:46:36.330Z,100401.61
2018-05-29T13:48:40.474Z,100411.60
2018-05-29T13:50:46.036Z,100420.88
2018-05-29T13:52:51.120Z,100424.87
2018-05-29T13:54:55.924Z,100423.87
2018-05-29T13:57:04.200Z,100432.72
2018-05-29T13:59:07.720Z,100437.89
2018-05-29T14:01:11.197Z,100428.19
2018-05-29T14:03:16.893Z,100438.02
2018-05-29T14:05:21.497Z,100432.70
2018-05-29T14:07:26.116Z,100434.88
2018-05-29T14:09:30.199Z,100438.61
2018-05-29T14:11:35.255Z,100439.21
2018-05-29T14:13:38.854Z,100443.68
2018-05-29T14:15:42.565Z,100450.66
2018-05-29T14:17:46.882Z,100441.45
2018-05-29T14:19:53.150Z,100453.14
2018-05-29T14:21:58.753Z,100455.37
2018-05-29T14:26:17.996Z,100423.53
2018-05-29T14:28:25.457Z,100431.77
2018-05-29T14:30:32.878Z,100435.11
2018-05-29T14:32:39.019Z,100438.91
2018-05-29T14:34:46.809Z,100446.02
2018-05-29T14:37:04.647Z,100464.85
2018-05-29T14:39:14.429Z,100451.45
2018-05-29T14:41:27.829Z,100392.78
2018-05-29T14:43:40.757Z,100499.81
2018-05-29T14:48:02.324Z,100537.54
2018-05-29T14:50:11.389Z,100531.39
2018-05-29T14:52:18.147Z,100540.05
2018-05-29T14:54:28.112Z,100415.68
2018-05-29T14:58:44.982Z,100519.99
2018-05-29T15:08:55.123Z,100574.46
2018-05-29T15:11:03.030Z,100603.66
2018-05-29T15:13:09.433Z,100611.36
2018-05-29T15:15:14.875Z,100646.45
2018-05-29T15:17:26.610Z,100669.62
2018-05-29T15:19:33.143Z,100669.95
2018-05-29T15:21:37.533Z,100692.12
2018-05-29T15:23:44.165Z,100674.27
2018-05-29T15:25:48.333Z,100668.95
2018-05-29T15:27:52.965Z,100628.59
2018-05-29T15:29:58.530Z,100656.80
2018-05-29T15:32:03.323Z,100650.27
2018-05-29T15:34:10.438Z,100569.72
2018-05-29T15:36:15.076Z,100658.39
2018-05-29T15:38:18.800Z,100599.91
2018-05-29T15:42:41.719Z,100682.62
2018-05-29T15:44:45.654Z,100526.37
2018-05-29T15:46:51.424Z,100666.35
2018-05-29T15:48:56.026Z,100650.47
2018-05-29T15:51:00.478Z,100580.77
2018-05-29T15:53:03.991Z,100527.25
2018-05-29T15:55:07.437Z,100574.66
2018-05-29T15:57:10.847Z,100447.24
2018-05-29T15:59:15.110Z,100554.06
2018-05-29T16:01:18.678Z,100542.03
2018-05-29T16:03:26.510Z,100539.25
2018-05-29T16:05:33.679Z,100515.02
2018-05-29T16:07:37.188Z,100492.72
2018-05-29T16:09:40.811Z,100456.70
2018-05-29T16:11:44.135Z,100514.05
2018-05-29T16:13:47.576Z,100404.52
2018-05-29T16:15:51.135Z,100488.31
2018-05-29T16:17:54.854Z,100481.52
2018-05-29T16:19:58.266Z,100492.05
2018-05-29T16:22:02.548Z,100492.03
2018-05-29T16:24:05.993Z,100503.42
2018-05-29T16:26:09.489Z,100504.39
2018-05-29T16:28:12.934Z,100499.59
2018-05-29T16:30:18.971Z,100508.23
2018-05-29T16:32:22.705Z,100515.94
2018-05-29T16:34:26.077Z,100516.27
2018-05-29T16:36:29.496Z,100522.09
2018-05-29T16:38:32.919Z,100516.59
2018-05-29T16:40:36.345Z,100507.09
2018-05-29T16:42:39.658Z,100496.48
2018-05-29T16:44:43.019Z,100495.09
2018-05-29T16:46:46.443Z,100501.95
2018-05-29T16:48:49.858Z,100499.80
2018-05-29T16:50:53.351Z,100489.84
2018-05-29T16:52:56.756Z,100485.52
2018-05-29T16:55:00.249Z,100477.00
2018-05-29T16:57:03.864Z,100487.05
2018-05-29T16:59:08.087Z,100484.56
2018-05-29T17:01:11.529Z,100475.01
2018-05-29T17:03:14.890Z,100492.44
2018-05-29T17:05:18.277Z,100489.02
2018-05-29T17:07:21.729Z,100485.59
2018-05-29T17:09:25.241Z,100482.15
2018-05-29T17:11:28.711Z,100488.32
2018-05-29T17:13:32.122Z,100485.80
2018-05-29T17:15:35.496Z,100487.55
2018-05-29T17:17:39.630Z,100474.72
2018-05-29T17:19:43.019Z,100476.58
2018-05-29T17:21:50.505Z,100462.33
2018-05-29T17:23:53.989Z,100445.88
2018-05-29T17:26:06.056Z,100461.11
2018-05-29T17:28:10.176Z,100455.90
2018-05-29T17:30:13.517Z,100446.78
2018-05-29T17:32:16.945Z,100444.23
2018-05-29T17:34:21.101Z,100437.33
2018-05-29T17:36:24.541Z,100428.73
2018-05-29T17:38:28.016Z,100433.13
2018-05-29T17:40:31.537Z,100424.00
2018-05-29T17:42:35.756Z,100423.14
2018-05-29T17:44:39.852Z,100438.02
2018-05-29T17:46:43.993Z,100437.13
2018-05-29T17:48:47.556Z,100429.76
2018-05-29T17:50:50.918Z,100447.56
2018-05-29T17:52:54.594Z,100450.17
2018-05-29T17:54:58.020Z,100441.98
2018-05-29T17:57:01.429Z,100465.02
2018-05-29T17:59:05.038Z,100471.11
2018-05-29T18:01:09.370Z,100469.88
2018-05-29T18:03:13.563Z,100467.27
2018-05-29T18:05:17.708Z,100466.41
2018-05-29T18:07:21.137Z,100461.16
2018-05-29T18:09:24.638Z,100467.70
2018-05-29T18:11:28.274Z,100467.26
2018-05-29T18:13:32.853Z,100477.27
2018-05-29T18:15:37.805Z,100474.22
2018-05-29T18:17:41.329Z,100477.70
2018-05-29T18:19:44.717Z,100482.03
2018-05-29T18:21:49.224Z,100492.46
2018-05-29T18:23:52.823Z,100494.21
2018-05-29T18:25:57.728Z,100498.52
2018-05-29T18:28:01.337Z,100507.61
2018-05-29T18:30:04.993Z,100506.30
2018-05-29T18:32:11.586Z,100503.70
2018-05-29T18:34:22.711Z,100514.11
2018-05-29T18:36:26.440Z,100518.45
2018-05-29T18:38:30.048Z,100521.92
2018-05-29T18:40:33.665Z,100528.44
2018-05-29T18:42:37.204Z,100520.17
2018-05-29T18:44:42.467Z,100525.39
2018-05-29T18:46:46.013Z,100531.91
2018-05-29T18:48:49.538Z,100526.69
2018-05-29T18:50:53.770Z,100533.20
2018-05-29T18:52:57.271Z,100537.99
2018-05-29T18:55:00.854Z,100540.16
2018-05-29T18:57:04.296Z,100544.51
2018-05-29T18:59:07.674Z,100539.72
2018-05-29T19:01:11.232Z,100546.23
2018-05-29T19:03:14.758Z,100537.54
2018-05-29T19:05:18.316Z,100532.33
2018-05-29T19:07:21.693Z,100542.33
2018-05-29T19:09:25.307Z,100546.66
2018-05-29T19:11:30.183Z,100557.10
2018-05-29T19:13:34.446Z,100552.75
2018-05-29T19:15:37.859Z,100570.99
2018-05-29T19:17:41.496Z,100575.34
2018-05-29T19:19:45.226Z,100576.19
2018-05-29T19:21:49.634Z,100578.84
2018-05-29T19:23:53.571Z,100588.39
2018-05-29T19:25:57.287Z,100591.44
2018-05-29T19:28:00.791Z,100597.08
2018-05-29T19:30:04.226Z,100598.38
2018-05-29T19:32:07.742Z,100598.80
2018-05-29T19:34:11.734Z,100601.85
2018-05-29T19:36:16.905Z,100612.28
2018-05-29T19:38:21.010Z,100607.05
2018-05-29T19:40:25.221Z,100610.98
2018-05-29T19:42:29.392Z,100617.49
2018-05-29T19:44:33.248Z,100611.84
2018-05-29T19:46:38.700Z,100616.64
2018-05-29T19:48:42.463Z,100614.88
2018-05-29T19:50:46.250Z,100613.13
2018-05-29T19:52:49.918Z,100625.73
2018-05-29T19:54:53.389Z,100625.75
2018-05-29T19:56:56.971Z,100624.00
2018-05-29T19:59:01.176Z,100629.20
2018-05-29T20:01:05.390Z,100633.98
2018-05-29T20:03:09.812Z,100636.16
2018-05-29T20:05:15.629Z,100637.00
2018-05-29T20:07:19.146Z,100640.06
2018-05-29T20:09:25.922Z,100638.34
2018-05-29T20:11:41.379Z,100634.02
2018-05-29T20:24:23.059Z,100619.19
2018-05-29T20:26:26.499Z,100611.83
2018-05-29T20:28:30.176Z,100609.65
2018-05-29T20:30:33.570Z,100612.23
2018-05-29T20:32:36.926Z,100610.93
2018-05-29T20:34:40.283Z,100605.70
2018-05-29T20:36:43.788Z,100606.59
2018-05-29T20:38:47.232Z,100597.88
2018-05-29T20:40:50.591Z,100586.58
2018-05-29T20:42:54.083Z,100593.08
2018-05-29T20:44:57.540Z,100593.53
2018-05-29T20:47:00.894Z,100587.88
2018-05-29T20:49:04.704Z,100577.48
2018-05-29T20:51:08.198Z,100571.38
2018-05-29T20:53:11.702Z,100570.52
2018-05-29T20:55:15.889Z,100570.08
2018-05-29T20:57:19.218Z,100569.19
2018-05-29T20:59:22.596Z,100570.05
2018-05-29T21:01:26.766Z,100569.62
2018-05-29T21:03:30.156Z,100569.19
2018-05-29T21:05:33.594Z,100570.91
2018-05-29T21:07:37.045Z,100579.20
2018-05-29T21:09:40.585Z,100579.16
2018-05-29T21:11:44.788Z,100576.11
2018-05-29T21:13:48.266Z,100578.33
2018-05-29T21:15:51.725Z,100574.39
2018-05-29T21:17:55.277Z,100577.84
2018-05-29T21:19:58.807Z,100567.42
2018-05-29T21:22:02.373Z,100571.77
2018-05-29T21:24:05.838Z,100570.45
2018-05-29T21:26:09.279Z,100569.52
2018-05-29T21:28:13.479Z,100574.29
2018-05-29T21:30:17.553Z,100579.06
2018-05-29T21:32:20.979Z,100574.28
2018-05-29T21:34:24.367Z,100579.07
2018-05-29T21:36:27.745Z,100585.59
2018-05-29T21:38:31.193Z,100585.97
2018-05-29T21:40:34.531Z,100588.58
2018-05-29T21:42:37.888Z,100587.70
2018-05-29T21:44:41.269Z,100587.70
2018-05-29T21:46:44.683Z,100587.29
2018-05-29T21:48:48.287Z,100592.06
2018-05-29T21:50:51.687Z,100595.87
2018-05-29T21:52:55.099Z,100591.50
2018-05-29T21:54:58.437Z,100604.09
2018-05-29T21:57:01.808Z,100597.61
2018-05-29T21:59:05.476Z,100605.41
2018-05-29T22:01:08.762Z,100597.56
2018-05-29T22:03:12.109Z,100602.34
2018-05-29T22:05:15.482Z,100603.17
2018-05-29T22:07:19.606Z,100610.55
2018-05-29T22:09:23.078Z,100604.89
2018-05-29T22:11:26.417Z,100613.58
2018-05-29T22:13:29.739Z,100613.20
2018-05-29T22:15:33.159Z,100603.61
2018-05-29T22:17:37.396Z,100609.68
2018-05-29T22:19:40.707Z,100612.27
2018-05-29T22:21:44.083Z,100611.78
2018-05-29T22:23:47.395Z,100611.31
2018-05-29T22:25:50.782Z,100606.50
2018-05-29T22:27:54.111Z,100606.95
2018-05-29T22:29:57.495Z,100603.94
2018-05-29T22:32:00.864Z,100590.44
2018-05-29T22:34:04.209Z,100597.76
2018-05-29T22:36:07.565Z,100595.58
2018-05-29T22:38:11.211Z,100598.18
2018-05-29T22:40:15.318Z,100600.31
2018-05-29T22:42:18.728Z,100598.97
2018-05-29T22:44:22.053Z,100605.90
2018-05-29T22:46:25.381Z,100588.91
2018-05-29T22:48:29.638Z,100598.02
2018-05-29T22:50:32.930Z,100602.77
2018-05-29T22:52:36.307Z,100605.80
2018-05-29T22:54:39.625Z,100609.70
2018-05-29T22:56:43.126Z,100606.22
2018-05-29T22:58:46.479Z,100600.55
2018-05-29T23:00:50.554Z,100613.61
2018-05-29T23:02:53.960Z,100614.03
2018-05-29T23:04:58.499Z,100620.54
2018-05-29T23:07:02.702Z,100624.88
2018-05-29T23:09:06.796Z,100627.55
2018-05-29T23:11:10.241Z,100624.95
2018-05-29T23:13:14.393Z,100631.47
2018-05-29T23:15:18.502Z,100627.58
2018-05-29T23:17:21.880Z,100623.64
2018-05-29T23:19:25.393Z,100630.63
2018-05-29T23:21:28.761Z,100630.21
2018-05-29T23:23:32.085Z,100636.30
2018-05-29T23:25:35.409Z,100635.87
2018-05-29T23:27:38.778Z,100638.50
2018-05-29T23:29:42.143Z,100645.45
2018-05-29T23:31:45.442Z,100641.96
2018-05-29T23:33:48.765Z,100647.11
2018-05-29T23:35:52.855Z,100642.41
2018-05-29T23:37:56.226Z,100643.70
2018-05-29T23:40:00.448Z,100653.21
2018-05-29T23:42:03.962Z,100653.17
2018-05-29T23:44:07.263Z,100653.64
2018-05-29T23:46:10.855Z,100653.64
2018-05-29T23:48:14.232Z,100649.28
2018-05-29T23:50:17.572Z,100652.35
2018-05-29T23:52:20.869Z,100649.43
2018-05-29T23:54:24.195Z,100652.84
2018-05-29T23:56:27.491Z,100657.14
2018-05-29T23:58:30.823Z,100659.30
